Time;durP1;ratioP1;P1;durP2;ratioP2;P2;SDS_P1;SDS_P2;PMS_P1;PMS_P2;Temp;Humidity;BMP_temperature;BMP_pressure;BME280_temperature;BME280_humidity;BME280_pressure;Samples;Min_cycle;Max_cycle;Signal;HPM_P1;HPM_P2
2023/09/13 00:01:42;;;;;;;1.30;1.10;;;;;;;17.17;100.00;100620.44;5058708;28;20037;-76
2023/09/13 00:04:08;;;;;;;0.55;0.47;;;;;;;17.00;100.00;100605.81;5059042;28;20594;-79
2023/09/13 00:06:33;;;;;;;7.22;2.15;;;;;;;16.99;100.00;100597.88;5060765;28;20060;-78
2023/09/13 00:08:59;;;;;;;0.28;0.28;;;;;;;17.13;100.00;100609.00;5066091;28;20734;-80
2023/09/13 00:11:24;;;;;;;0.75;0.75;;;;;;;16.81;100.00;100597.41;5062705;28;20124;-77
2023/09/13 00:13:50;;;;;;;1.30;1.20;;;;;;;17.33;100.00;100698.72;5062439;28;20028;-79
2023/09/13 00:16:15;;;;;;;0.40;0.40;;;;;;;16.72;100.00;100596.72;5063136;28;20502;-79
2023/09/13 00:18:41;;;;;;;1.20;1.10;;;;;;;17.21;100.00;100688.41;5061381;28;20887;-79
2023/09/13 00:21:10;;;;;;;1.52;0.93;;;;;;;16.67;100.00;100618.88;5062546;28;20037;-77
2023/09/13 00:23:35;;;;;;;0.90;0.77;;;;;;;16.75;100.00;100610.75;5066780;28;20048;-78
2023/09/13 00:26:01;;;;;;;1.27;1.10;;;;;;;16.66;100.00;100613.59;5065550;28;20041;-76
2023/09/13 00:28:26;;;;;;;2.80;0.82;;;;;;;16.62;100.00;100606.59;5060230;28;20051;-78
2023/09/13 00:30:52;;;;;;;1.05;0.90;;;;;;;16.61;100.00;100618.13;5056116;28;20505;-78
2023/09/13 00:33:17;;;;;;;0.65;0.57;;;;;;;16.71;100.00;100613.50;5062102;28;20514;-78
2023/09/13 00:35:42;;;;;;;0.85;0.85;;;;;;;17.17;100.00;100698.19;5043104;28;20119;-78
2023/09/13 00:38:08;;;;;;;1.00;0.75;;;;;;;16.67;100.00;100602.97;5048268;28;20117;-78
2023/09/13 00:40:33;;;;;;;0.38;0.30;;;;;;;17.28;100.00;100712.09;5064516;28;20039;-77
2023/09/13 00:42:59;;;;;;;8.30;1.33;;;;;;;17.32;100.00;100710.22;5054615;28;20198;-78
2023/09/13 00:45:25;;;;;;;1.55;1.27;;;;;;;17.50;100.00;100716.91;5058164;28;20539;-76
2023/09/13 00:47:51;;;;;;;1.02;0.93;;;;;;;17.61;100.00;100688.31;5057131;28;20059;-79
2023/09/13 00:50:17;;;;;;;1.13;1.08;;;;;;;17.66;100.00;100682.91;5062125;28;20430;-78
2023/09/13 00:52:46;;;;;;;0.52;0.43;;;;;;;17.14;100.00;100604.56;5058505;28;20037;-80
2023/09/13 00:55:14;;;;;;;1.92;1.75;;;;;;;17.38;100.00;100703.94;5057632;28;20041;-78
2023/09/13 00:57:39;;;;;;;0.50;0.50;;;;;;;16.85;100.00;100599.06;5062868;28;20048;-78
2023/09/13 01:00:09;;;;;;;0.40;0.40;;;;;;;17.53;100.00;100687.63;5065440;28;20041;-80
2023/09/13 01:02:38;;;;;;;1.88;1.10;;;;;;;17.38;100.00;100688.00;5057936;28;20057;-79
2023/09/13 01:05:05;;;;;;;1.95;1.10;;;;;;;17.36;100.00;100705.75;5063483;28;20066;-76
2023/09/13 01:07:32;;;;;;;0.45;0.45;;;;;;;17.12;100.00;100700.09;5059845;28;20040;-77
2023/09/13 01:09:58;;;;;;;0.22;0.22;;;;;;;16.98;100.00;100688.94;5056211;28;20075;-77
2023/09/13 01:12:23;;;;;;;0.55;0.43;;;;;;;17.07;100.00;100708.16;5052088;28;20509;-77
2023/09/13 01:14:49;;;;;;;0.40;0.30;;;;;;;16.82;100.00;100689.25;5064681;28;20044;-79
2023/09/13 01:17:24;;;;;;;1.40;0.88;;;;;;;16.40;100.00;100619.44;5058126;28;20131;-80
2023/09/13 01:20:14;;;;;;;2.78;2.58;;;;;;;16.79;100.00;100699.06;5060135;28;20639;-79
2023/09/13 01:22:54;;;;;;;0.55;0.55;;;;;;;16.41;100.00;100622.09;5063986;28;20067;-79
2023/09/13 01:25:45;;;;;;;1.02;0.90;;;;;;;16.94;100.00;100721.69;5058858;28;20753;-77
2023/09/13 01:28:36;;;;;;;0.88;0.80;;;;;;;16.38;100.00;100630.06;5059339;28;20408;-77
2023/09/13 01:31:05;;;;;;;0.40;0.40;;;;;;;16.19;100.00;100613.69;5060483;28;20131;-76
2023/09/13 01:33:31;;;;;;;1.75;1.65;;;;;;;16.24;100.00;100638.28;5061869;28;20045;-79
2023/09/13 01:35:57;;;;;;;1.00;0.73;;;;;;;16.05;100.00;100621.03;5055562;28;20044;-78
2023/09/13 01:38:22;;;;;;;1.08;0.88;;;;;;;16.61;100.00;100717.03;5042942;28;20076;-76
2023/09/13 01:40:50;;;;;;;0.30;0.30;;;;;;;15.88;100.00;100591.38;5046845;28;20234;-76
2023/09/13 01:43:15;;;;;;;0.52;0.50;;;;;;;16.51;100.00;100704.88;5059193;28;20049;-77
2023/09/13 01:45:41;;;;;;;0.73;0.55;;;;;;;16.56;100.00;100723.34;5049492;28;20167;-78
2023/09/13 01:48:09;;;;;;;2.35;1.55;;;;;;;16.35;100.00;100711.38;5063730;28;20080;-76
2023/09/13 01:50:35;;;;;;;1.15;0.50;;;;;;;16.41;100.00;100714.78;5062760;28;20047;-78
2023/09/13 01:53:03;;;;;;;0.55;0.40;;;;;;;15.96;100.00;100623.84;5058770;28;20025;-78
2023/09/13 01:55:29;;;;;;;4.40;0.63;;;;;;;15.89;100.00;100609.84;5060636;28;20048;-77
2023/09/13 01:57:54;;;;;;;1.85;1.40;;;;;;;16.28;100.00;100725.63;5052242;28;20045;-77
2023/09/13 02:00:21;;;;;;;1.30;0.50;;;;;;;16.19;100.00;100695.75;5054214;28;20136;-77
2023/09/13 02:02:47;;;;;;;0.38;0.38;;;;;;;15.77;100.00;100640.06;5050734;28;20053;-77
2023/09/13 02:05:12;;;;;;;0.60;0.50;;;;;;;14.62;100.00;100453.41;5056990;28;20075;-76
2023/09/13 02:07:38;;;;;;;1.25;1.10;;;;;;;15.48;100.00;100618.50;5054377;28;20477;-76
2023/09/13 02:10:04;;;;;;;0.20;0.20;;;;;;;16.25;100.00;100727.44;5059092;28;20061;-75
2023/09/13 02:12:29;;;;;;;4.95;1.50;;;;;;;15.57;100.00;100613.06;5039506;28;20053;-77
2023/09/13 02:14:55;;;;;;;0.47;0.40;;;;;;;15.49;100.00;100609.66;5057492;28;20049;-78
2023/09/13 02:17:20;;;;;;;0.80;0.75;;;;;;;15.40;100.00;100615.97;5055106;28;20106;-78
2023/09/13 02:19:50;;;;;;;0.55;0.38;;;;;;;15.94;100.00;100716.50;5067218;28;20400;-78
2023/09/13 02:22:15;;;;;;;0.40;0.40;;;;;;;15.83;100.00;100687.59;5059098;28;20048;-78
2023/09/13 02:24:41;;;;;;;0.30;0.30;;;;;;;15.46;100.00;100607.09;5053411;28;20045;-78
2023/09/13 02:27:06;;;;;;;1.38;0.93;;;;;;;15.54;100.00;100608.66;5048550;28;20047;-80
2023/09/13 02:29:32;;;;;;;3.03;2.05;;;;;;;15.38;100.00;100623.94;5048315;28;20068;-79
2023/09/13 02:31:57;;;;;;;1.90;1.80;;;;;;;15.90;100.00;100708.66;5058662;28;20475;-77
2023/09/13 02:34:23;;;;;;;1.42;0.60;;;;;;;15.93;100.00;100732.41;5039424;28;20044;-78
2023/09/13 02:36:49;;;;;;;0.93;0.88;;;;;;;15.80;100.00;100710.56;5047900;28;20080;-78
2023/09/13 02:39:38;;;;;;;2.28;0.98;;;;;;;15.72;100.00;100693.97;5056981;28;20087;-79
2023/09/13 02:42:05;;;;;;;0.80;0.80;;;;;;;15.26;100.00;100623.25;5052330;28;20044;-78
2023/09/13 02:44:31;;;;;;;0.43;0.40;;;;;;;16.20;100.00;100723.09;5058097;28;20048;-79
2023/09/13 02:46:57;;;;;;;1.30;0.80;;;;;;;16.10;100.00;100716.25;5053598;28;20036;-78
2023/09/13 02:49:24;;;;;;;1.02;0.70;;;;;;;15.93;100.00;100730.63;5048051;28;20446;-79
2023/09/13 02:51:51;;;;;;;1.27;1.00;;;;;;;15.71;100.00;100700.13;5045645;28;20059;-77
2023/09/13 02:54:17;;;;;;;1.85;1.75;;;;;;;15.60;100.00;100705.59;5060952;28;20107;-78
2023/09/13 02:56:42;;;;;;;0.65;0.65;;;;;;;15.66;100.00;100713.41;5068213;28;20134;-77
2023/09/13 02:59:08;;;;;;;0.70;0.70;;;;;;;15.14;100.00;100600.53;5063173;28;20040;-80
2023/09/13 03:01:33;;;;;;;1.25;1.10;;;;;;;15.31;100.00;100637.28;5059770;28;20799;-81
2023/09/13 03:03:59;;;;;;;1.20;0.98;;;;;;;15.95;100.00;100718.25;5060113;28;21345;-79
2023/09/13 03:06:24;;;;;;;0.82;0.80;;;;;;;15.34;100.00;100624.03;5055072;28;20036;-79
2023/09/13 03:08:50;;;;;;;0.45;0.45;;;;;;;15.54;100.00;100692.44;5058307;28;20139;-79
2023/09/13 03:11:18;;;;;;;2.33;2.13;;;;;;;15.47;100.00;100669.63;5060030;28;20661;-79
2023/09/13 03:13:44;;;;;;;1.10;1.00;;;;;;;15.07;100.00;100627.97;5056809;28;20037;-80
2023/09/13 03:16:18;;;;;;;1.80;1.30;;;;;;;14.99;100.00;100641.28;5060375;28;20051;-77
2023/09/13 03:18:45;;;;;;;1.23;1.00;;;;;;;15.69;100.00;100747.78;5032260;28;20061;-76
2023/09/13 03:21:12;;;;;;;0.45;0.43;;;;;;;15.03;100.00;100647.41;5059961;28;20101;-78
2023/09/13 03:23:40;;;;;;;1.80;1.70;;;;;;;15.56;100.00;100732.97;5056139;28;20717;-77
2023/09/13 03:26:17;;;;;;;1.10;1.02;;;;;;;15.57;100.00;100730.31;5058220;28;20040;-76
2023/09/13 03:28:46;;;;;;;1.02;0.70;;;;;;;15.34;100.00;100659.25;5056840;28;20551;-79
2023/09/13 03:31:13;;;;;;;0.88;0.73;;;;;;;15.10;100.00;100655.22;5066446;28;20113;-80
2023/09/13 03:33:39;;;;;;;0.25;0.25;;;;;;;15.41;100.00;100727.03;5050484;28;20455;-81
2023/09/13 03:36:07;;;;;;;0.98;0.88;;;;;;;15.29;100.00;100721.03;5063690;28;20094;-79
2023/09/13 03:38:32;;;;;;;2.10;1.67;;;;;;;15.57;100.00;100772.63;5055685;28;20064;-80
2023/09/13 03:40:58;;;;;;;0.43;0.43;;;;;;;15.17;100.00;100700.91;5057423;28;20028;-81
2023/09/13 03:43:23;;;;;;;4.38;0.95;;;;;;;14.94;100.00;100669.56;5062383;28;20032;-80
2023/09/13 03:45:49;;;;;;;1.48;1.08;;;;;;;15.49;100.00;100779.78;5069819;28;20063;-80
2023/09/13 03:48:14;;;;;;;2.38;1.95;;;;;;;15.39;100.00;100765.84;5053074;28;20047;-81
2023/09/13 03:50:40;;;;;;;1.10;1.00;;;;;;;15.50;100.00;100763.03;5068002;28;20469;-80
2023/09/13 03:53:05;;;;;;;2.53;2.33;;;;;;;15.58;100.00;100766.44;5056695;28;20040;-80
2023/09/13 03:55:31;;;;;;;1.00;0.90;;;;;;;15.00;100.00;100664.16;5067143;28;20036;-79
2023/09/13 03:57:56;;;;;;;1.08;0.77;;;;;;;15.05;100.00;100672.91;5065295;28;20051;-81
2023/09/13 04:00:21;;;;;;;1.67;0.95;;;;;;;15.31;100.00;100757.16;5065385;28;20717;-79
2023/09/13 04:02:48;;;;;;;0.40;0.40;;;;;;;15.33;100.00;100773.84;5060990;28;20067;-80
2023/09/13 04:05:14;;;;;;;1.15;0.95;;;;;;;13.78;100.00;100485.31;5061954;28;20582;-80
2023/09/13 04:07:39;;;;;;;0.80;0.80;;;;;;;15.27;100.00;100731.63;5069091;28;20028;-79
2023/09/13 04:10:06;;;;;;;3.55;2.30;;;;;;;14.97;100.00;100699.44;5063173;28;20110;-79
2023/09/13 04:12:31;;;;;;;3.58;1.77;;;;;;;14.62;100.00;100648.84;5059622;28;20591;-79
2023/09/13 04:14:57;;;;;;;1.38;1.27;;;;;;;14.72;100.00;100677.75;5057312;28;20040;-81
2023/09/13 04:17:22;;;;;;;1.48;1.38;;;;;;;15.31;100.00;100732.44;5041772;28;20072;-79
2023/09/13 04:19:48;;;;;;;1.48;1.38;;;;;;;15.31;100.00;100743.94;5070773;28;20044;-80
2023/09/13 04:22:16;;;;;;;1.50;1.40;;;;;;;14.62;100.00;100644.44;5065226;28;20048;-81
2023/09/13 04:24:42;;;;;;;1.33;1.08;;;;;;;15.31;100.00;100761.53;5067653;28;20056;-78
2023/09/13 04:27:08;;;;;;;1.63;1.52;;;;;;;15.11;100.00;100719.53;5061966;28;20044;-79
2023/09/13 04:29:33;;;;;;;0.68;0.55;;;;;;;15.51;100.00;100751.56;5065582;28;20044;-80
2023/09/13 04:31:59;;;;;;;4.82;2.13;;;;;;;15.07;100.00;100700.19;5061886;28;20029;-79
2023/09/13 04:34:25;;;;;;;1.38;1.27;;;;;;;15.33;100.00;100757.09;5065872;28;20036;-78
2023/09/13 04:36:51;;;;;;;1.83;0.93;;;;;;;14.71;100.00;100648.72;5067234;28;20044;-79
2023/09/13 04:39:16;;;;;;;2.92;2.50;;;;;;;14.90;100.00;100671.34;5060387;28;20419;-80
2023/09/13 04:41:42;;;;;;;0.90;0.82;;;;;;;15.66;100.00;100773.38;5056137;28;20475;-79
2023/09/13 04:44:07;;;;;;;1.98;1.80;;;;;;;15.72;100.00;100755.69;5053784;28;20440;-79
2023/09/13 04:46:32;;;;;;;1.95;1.80;;;;;;;15.60;100.00;100777.00;5064244;28;20047;-80
2023/09/13 04:48:58;;;;;;;2.25;2.05;;;;;;;15.49;100.00;100740.13;5056856;28;20171;-81
2023/09/13 04:51:23;;;;;;;1.02;0.88;;;;;;;15.45;100.00;100743.69;5058790;28;20049;-81
2023/09/13 04:53:49;;;;;;;1.42;1.05;;;;;;;15.61;100.00;100749.63;5059318;28;20106;-81
2023/09/13 04:56:14;;;;;;;1.33;1.00;;;;;;;15.08;100.00;100672.00;5056226;28;20049;-80
2023/09/13 04:58:41;;;;;;;2.08;1.90;;;;;;;15.35;100.00;100692.72;5055603;28;20036;-79
2023/09/13 05:01:07;;;;;;;0.75;0.75;;;;;;;15.94;100.00;100763.25;5056281;28;20707;-77
2023/09/13 05:03:32;;;;;;;1.88;1.20;;;;;;;15.63;100.00;100705.53;5043009;28;20064;-78
2023/09/13 05:05:58;;;;;;;1.48;1.38;;;;;;;15.90;100.00;100751.88;5054723;28;20041;-79
2023/09/13 05:08:23;;;;;;;1.67;1.58;;;;;;;15.60;100.00;100677.34;5055878;28;20854;-77
2023/09/13 05:10:51;;;;;;;0.65;0.65;;;;;;;15.99;100.00;100727.91;5057317;28;20062;-77
2023/09/13 05:13:17;;;;;;;1.88;1.73;;;;;;;15.73;100.00;100703.63;5057575;28;20032;-78
2023/09/13 05:15:43;;;;;;;1.70;1.60;;;;;;;16.36;100.00;100758.13;5051754;28;20095;-77
2023/09/13 05:18:09;;;;;;;0.63;0.60;;;;;;;16.41;100.00;100751.88;5058918;28;20105;-78
2023/09/13 05:20:35;;;;;;;3.45;3.00;;;;;;;16.30;100.00;100649.69;5062009;28;20124;-78
2023/09/13 05:23:00;;;;;;;3.15;2.72;;;;;;;16.88;100.00;100633.47;5054788;28;20021;-78
2023/09/13 05:25:26;;;;;;;3.80;3.50;;;;;;;17.80;100.00;100736.53;5063002;28;20069;-78
2023/09/13 05:27:51;;;;;;;1.67;1.38;;;;;;;17.42;100.00;100639.25;5037759;28;20045;-78
2023/09/13 05:30:17;;;;;;;1.05;0.98;;;;;;;18.56;100.00;100672.53;5056512;28;20040;-79
2023/09/13 05:32:42;;;;;;;0.68;0.68;;;;;;;18.43;100.00;100724.28;5059214;28;20133;-79
2023/09/13 05:35:08;;;;;;;0.85;0.70;;;;;;;18.58;100.00;100610.50;5057380;28;20714;-81
2023/09/13 05:37:33;;;;;;;3.05;1.90;;;;;;;19.37;100.00;100713.59;5053979;28;20068;-79
2023/09/13 05:39:59;;;;;;;1.48;1.25;;;;;;;19.11;100.00;100610.66;5062496;28;20086;-78
2023/09/13 05:42:25;;;;;;;2.05;1.83;;;;;;;19.95;100.00;100609.63;5058524;28;20059;-80
2023/09/13 05:44:50;;;;;;;1.20;1.13;;;;;;;19.89;100.00;100711.03;5056629;28;20041;-79
2023/09/13 05:47:16;;;;;;;3.55;2.90;;;;;;;21.45;100.00;100724.00;5060977;28;20044;-79
2023/09/13 05:49:41;;;;;;;3.13;2.63;;;;;;;21.83;100.00;100718.00;5056184;28;20029;-79
2023/09/13 05:52:06;;;;;;;1.30;1.08;;;;;;;21.59;100.00;100637.97;5051995;28;20046;-78
2023/09/13 05:54:32;;;;;;;3.40;3.10;;;;;;;21.05;100.00;100695.31;5049174;28;20084;-77
2023/09/13 05:56:57;;;;;;;0.88;0.82;;;;;;;21.22;100.00;100636.78;5062994;28;20049;-78
2023/09/13 05:59:23;;;;;;;1.33;1.23;;;;;;;21.72;100.00;100689.06;5049925;28;20508;-78
2023/09/13 06:01:49;;;;;;;1.67;1.40;;;;;;;20.92;100.00;100648.69;5055360;28;20559;-77
2023/09/13 06:04:14;;;;;;;0.95;0.90;;;;;;;20.72;100.00;100630.78;5057372;28;20049;-76
2023/09/13 06:06:40;;;;;;;1.45;1.35;;;;;;;20.85;100.00;100722.75;5034480;28;20053;-78
2023/09/13 06:09:05;;;;;;;1.33;0.90;;;;;;;20.70;100.00;100720.63;5055537;28;20056;-77
2023/09/13 06:11:31;;;;;;;2.03;1.25;;;;;;;20.41;100.00;100710.06;5056990;28;20048;-77
2023/09/13 06:13:57;;;;;;;1.17;0.85;;;;;;;20.98;100.00;100712.50;5054352;28;20074;-79
2023/09/13 06:16:23;;;;;;;2.65;2.05;;;;;;;20.20;100.00;100670.88;5053551;28;20036;-77
2023/09/13 06:18:49;;;;;;;2.30;2.10;;;;;;;20.43;100.00;100726.03;5054067;28;20116;-78
2023/09/13 06:21:15;;;;;;;1.58;1.48;;;;;;;19.58;100.00;100648.13;5060870;28;20041;-77
2023/09/13 06:23:41;;;;;;;1.27;0.85;;;;;;;20.12;100.00;100699.59;5053219;28;20056;-79
2023/09/13 06:26:07;;;;;;;1.05;0.95;;;;;;;20.19;100.00;100638.03;5051681;28;20402;-76
2023/09/13 06:28:33;;;;;;;1.08;0.65;;;;;;;20.70;100.00;100656.63;5045954;28;20039;-77
2023/09/13 06:31:00;;;;;;;1.55;1.25;;;;;;;19.87;100.00;100662.28;5059259;28;20633;-77
2023/09/13 06:33:26;;;;;;;1.08;0.98;;;;;;;20.56;100.00;100738.03;5050570;28;20234;-76
2023/09/13 06:35:53;;;;;;;1.48;1.38;;;;;;;20.30;100.00;100693.63;5050855;28;20133;-77
2023/09/13 06:38:19;;;;;;;0.50;0.50;;;;;;;20.47;100.00;100738.34;5030045;28;20576;-77
2023/09/13 06:40:47;;;;;;;1.45;1.35;;;;;;;20.74;100.00;100735.59;5050834;28;20029;-77
2023/09/13 06:43:13;;;;;;;2.47;2.25;;;;;;;21.02;100.00;100730.09;5062018;28;20635;-77
2023/09/13 06:45:39;;;;;;;0.60;0.60;;;;;;;20.70;100.00;100645.97;5052060;28;20048;-78
2023/09/13 06:48:04;;;;;;;0.55;0.52;;;;;;;20.82;100.00;100749.53;5055985;28;20044;-78
2023/09/13 06:50:30;;;;;;;1.70;1.58;;;;;;;20.47;100.00;100657.50;5055064;28;20040;-77
2023/09/13 06:52:56;;;;;;;1.75;1.17;;;;;;;20.61;100.00;100751.19;5057272;28;20062;-76
2023/09/13 06:55:21;;;;;;;1.42;1.33;;;;;;;20.45;100.00;100693.06;5057299;28;20149;-79
2023/09/13 06:57:48;;;;;;;0.35;0.35;;;;;;;20.98;100.00;100748.03;5039672;28;20503;-78
2023/09/13 07:00:14;;;;;;;0.60;0.40;;;;;;;20.54;100.00;100675.88;5055203;28;20084;-77
2023/09/13 07:02:40;;;;;;;0.95;0.95;;;;;;;20.42;100.00;100645.19;5047112;28;20049;-77
2023/09/13 07:05:05;;;;;;;1.20;0.98;;;;;;;21.13;100.00;100749.25;5053739;28;20060;-76
2023/09/13 07:07:31;;;;;;;1.20;1.10;;;;;;;20.90;100.00;100744.78;5053699;28;20070;-77
2023/09/13 07:09:57;;;;;;;0.95;0.95;;;;;;;21.16;100.00;100753.59;5047191;28;20048;-78
2023/09/13 07:12:22;;;;;;;0.30;0.30;;;;;;;21.45;100.00;100733.81;5055284;28;20056;-77
2023/09/13 07:14:47;;;;;;;0.35;0.35;;;;;;;21.42;100.00;100672.50;5043721;28;20140;-76
2023/09/13 07:17:17;;;;;;;1.10;1.00;;;;;;;21.26;100.00;100669.59;5037078;28;20055;-74
2023/09/13 07:19:43;;;;;;;0.95;0.85;;;;;;;21.73;100.00;100743.34;5058886;28;20093;-76
2023/09/13 07:22:09;;;;;;;0.55;0.55;;;;;;;21.79;100.00;100709.25;5053427;28;20450;-74
2023/09/13 07:24:34;;;;;;;4.40;3.25;;;;;;;21.89;100.00;100712.41;5061834;28;20060;-76
2023/09/13 07:27:00;;;;;;;2.00;1.50;;;;;;;22.06;100.00;100746.44;5050787;28;20053;-77
2023/09/13 07:29:26;;;;;;;1.27;1.08;;;;;;;22.12;100.00;100741.72;5067617;28;20732;-71
2023/09/13 07:31:52;;;;;;;1.55;0.47;;;;;;;21.99;100.00;100664.81;5056999;28;20039;-74
2023/09/13 07:34:17;;;;;;;0.98;0.85;;;;;;;22.30;100.00;100729.38;5065468;28;20033;-75
2023/09/13 07:36:43;;;;;;;1.27;1.17;;;;;;;21.93;100.00;100653.41;5055978;28;20748;-75
2023/09/13 07:39:10;;;;;;;1.55;1.20;;;;;;;22.11;100.00;100640.19;5066254;28;20054;-75
2023/09/13 07:41:35;;;;;;;0.85;0.85;;;;;;;22.51;100.00;100727.56;5065111;28;20488;-74
2023/09/13 07:44:01;;;;;;;2.47;1.27;;;;;;;22.55;100.00;100730.97;5064119;28;20024;-76
2023/09/13 07:46:26;;;;;;;2.83;2.63;;;;;;;22.80;100.00;100721.81;5063375;28;20453;-73
2023/09/13 07:48:52;;;;;;;1.45;1.35;;;;;;;22.94;100.00;100743.47;5067091;28;20032;-79
2023/09/13 07:51:18;;;;;;;1.10;0.85;;;;;;;22.75;100.00;100738.09;5048298;28;20579;-75
2023/09/13 07:53:44;;;;;;;3.60;2.55;;;;;;;22.25;100.00;100636.94;5066859;28;20124;-77
2023/09/13 07:56:10;;;;;;;0.30;0.30;;;;;;;22.74;100.00;100690.88;5061719;28;20481;-74
2023/09/13 07:58:35;;;;;;;0.68;0.45;;;;;;;22.53;100.00;100641.91;5056428;28;20143;-75
2023/09/13 08:01:01;;;;;;;0.55;0.55;;;;;;;22.38;100.00;100645.28;5066923;28;20460;-77
2023/09/13 08:03:27;;;;;;;0.73;0.63;;;;;;;22.91;100.00;100735.59;5063580;28;20126;-73
2023/09/13 08:05:52;;;;;;;0.38;0.38;;;;;;;23.62;100.00;100735.78;5051314;28;20052;-83
2023/09/13 08:08:22;;;;;;;2.30;2.05;;;;;;;23.26;100.00;100711.69;5064881;28;20059;-77
2023/09/13 08:10:52;;;;;;;1.58;0.82;;;;;;;23.39;100.00;100736.94;5043478;28;20036;-76
2023/09/13 08:13:21;;;;;;;0.80;0.80;;;;;;;23.64;100.00;100733.03;5032310;28;20043;-76
2023/09/13 08:15:50;;;;;;;2.47;2.35;;;;;;;23.18;100.00;100645.97;5044483;28;20064;-76
2023/09/13 08:18:17;;;;;;;40.33;36.17;;;;;;;23.09;100.00;100627.69;5057051;28;20634;-74
2023/09/13 08:20:43;;;;;;;68.15;49.10;;;;;;;23.17;100.00;100676.34;5050742;28;20045;-74
2023/09/13 08:23:08;;;;;;;70.55;63.53;;;;;;;23.84;100.00;100724.06;5052963;28;20052;-76
2023/09/13 08:25:34;;;;;;;42.08;34.90;;;;;;;23.94;100.00;100718.13;5058470;28;20508;-76
2023/09/13 08:27:59;;;;;;;7.63;6.25;;;;;;;23.50;100.00;100637.28;5055133;28;20461;-75
2023/09/13 08:30:24;;;;;;;10.82;9.75;;;;;;;23.38;100.00;100665.53;5041356;28;20044;-74
2023/09/13 08:32:50;;;;;;;5.43;2.97;;;;;;;23.37;100.00;100647.75;5050642;28;20041;-76
2023/09/13 08:35:15;;;;;;;7.00;6.13;;;;;;;23.72;100.00;100677.28;5061685;28;20037;-73
2023/09/13 08:37:41;;;;;;;2.90;2.60;;;;;;;24.18;100.00;100731.22;5057078;28;20058;-75
2023/09/13 08:40:07;;;;;;;0.85;0.52;;;;;;;23.72;100.00;100637.09;5056366;28;20081;-80
2023/09/13 08:42:33;;;;;;;1.60;1.50;;;;;;;24.31;100.00;100699.28;5063927;28;20201;-76
2023/09/13 08:44:59;;;;;;;0.28;0.28;;;;;;;24.44;100.00;100733.44;5070263;28;20060;-76
2023/09/13 08:47:27;;;;;;;0.50;0.50;;;;;;;23.96;100.00;100646.56;5051591;28;20060;-76
2023/09/13 08:49:55;;;;;;;1.08;0.90;;;;;;;24.61;100.00;100726.34;5053800;28;20384;-78
2023/09/13 08:52:22;;;;;;;2.78;2.22;;;;;;;24.58;100.00;100724.69;5054583;28;20374;-75
2023/09/13 08:54:49;;;;;;;7.47;2.00;;;;;;;24.67;100.00;100709.91;5054372;28;20048;-78
2023/09/13 08:57:15;;;;;;;2.72;2.15;;;;;;;24.32;100.00;100613.38;5045443;28;20959;-77
2023/09/13 08:59:42;;;;;;;1.73;1.63;;;;;;;25.15;100.00;100713.53;5048673;28;20059;-76
2023/09/13 09:02:15;;;;;;;1.25;1.08;;;;;;;25.12;97.49;100711.00;5052041;28;20063;-75
2023/09/13 09:04:40;;;;;;;;;;;;;;;25.14;98.16;100716.28;5052454;28;20036;-78
2023/09/13 09:07:07;;;;;;;1.65;1.55;;;;;;;24.77;97.63;100648.53;5050419;28;20291;-83
2023/09/13 09:09:33;;;;;;;1.25;1.13;;;;;;;24.80;97.88;100637.63;5052738;28;20036;-75
2023/09/13 09:12:01;;;;;;;1.52;1.42;;;;;;;25.20;92.05;100690.00;5050824;28;20049;-78
2023/09/13 09:14:32;;;;;;;0.47;0.47;;;;;;;25.28;86.34;100658.16;5038344;28;20648;-74
2023/09/13 09:16:59;;;;;;;2.25;1.45;;;;;;;26.26;80.25;100704.44;5046876;28;20029;-76
2023/09/13 09:19:26;;;;;;;1.77;1.27;;;;;;;25.89;80.08;100701.28;5055757;28;20036;-76
2023/09/13 09:21:52;;;;;;;1.27;0.63;;;;;;;25.40;81.55;100610.06;5052184;28;20103;-78
2023/09/13 09:24:17;;;;;;;2.38;0.52;;;;;;;25.46;76.81;100583.69;5051115;28;20049;-77
2023/09/13 09:26:44;;;;;;;9.95;2.00;;;;;;;25.81;76.97;100634.50;5048108;28;20057;-75
2023/09/13 09:29:14;;;;;;;1.67;1.58;;;;;;;25.75;79.41;100634.84;5045777;28;22185;-77
2023/09/13 09:31:41;;;;;;;4.45;2.90;;;;;;;26.22;78.37;100705.56;5031919;28;20051;-76
2023/09/13 09:34:09;;;;;;;2.85;2.22;;;;;;;26.08;82.14;100685.78;5047743;28;20659;-83
2023/09/13 09:36:42;;;;;;;4.05;2.15;;;;;;;26.01;76.12;100624.38;5052639;28;20163;-77
2023/09/13 09:39:08;;;;;;;0.73;0.55;;;;;;;26.18;76.89;100658.34;5044089;28;20079;-78
2023/09/13 09:41:35;;;;;;;2.15;1.67;;;;;;;26.37;74.76;100658.06;5051468;28;20060;-76
2023/09/13 09:44:02;;;;;;;1.60;1.50;;;;;;;26.16;74.41;100601.91;5046138;28;20033;-76
2023/09/13 09:46:27;;;;;;;1.85;1.65;;;;;;;26.68;73.09;100684.78;5035080;28;20037;-75
2023/09/13 09:48:54;;;;;;;0.35;0.30;;;;;;;26.70;69.64;100657.78;5055182;28;20085;-78
2023/09/13 09:51:20;;;;;;;1.85;1.33;;;;;;;26.61;67.50;100618.84;5059159;28;20045;-76
2023/09/13 09:53:46;;;;;;;2.25;1.85;;;;;;;26.52;66.32;100587.09;5053226;28;20095;-78
2023/09/13 09:56:13;;;;;;;11.43;9.93;;;;;;;26.16;83.34;100603.75;5049330;28;20059;-72
2023/09/13 09:58:38;;;;;;;5.13;4.57;;;;;;;26.90;73.50;100684.31;5047925;28;20237;-73
2023/09/13 10:01:04;;;;;;;18.15;6.55;;;;;;;26.99;67.04;100674.75;5051664;28;20137;-69
2023/09/13 10:03:34;;;;;;;5.55;4.18;;;;;;;27.17;64.53;100678.97;5030905;28;20122;-71
2023/09/13 10:06:10;;;;;;;46.78;31.40;;;;;;;27.04;69.97;100674.47;5050882;28;20592;-72
2023/09/13 10:08:47;;;;;;;3.83;3.53;;;;;;;26.88;63.82;100588.44;5055145;28;20052;-71
2023/09/13 10:11:17;;;;;;;2.35;1.77;;;;;;;27.46;63.29;100653.78;5056356;28;20110;-70
2023/09/13 10:13:47;;;;;;;8.23;4.45;;;;;;;27.24;61.64;100578.91;5058209;28;20043;-72
2023/09/13 10:16:14;;;;;;;6.45;5.97;;;;;;;27.28;62.30;100588.50;5061363;28;20044;-70
2023/09/13 10:18:51;;;;;;;15.43;13.52;;;;;;;27.60;62.36;100645.63;5053840;28;20324;-73
2023/09/13 10:21:24;;;;;;;19.52;10.82;;;;;;;27.58;60.77;100631.38;5043250;28;20543;-73
2023/09/13 10:23:56;;;;;;;22.30;17.20;;;;;;;27.46;60.66;100584.56;5061386;28;20040;-74
2023/09/13 10:26:23;;;;;;;8.15;7.40;;;;;;;27.63;58.81;100567.25;5046833;28;20071;-75
2023/09/13 10:28:51;;;;;;;6.55;6.05;;;;;;;28.37;58.12;100661.94;5062228;28;20082;-71
2023/09/13 10:31:24;;;;;;;16.42;14.93;;;;;;;28.01;56.68;100569.13;5063340;28;20043;-69
2023/09/13 10:33:52;;;;;;;19.17;17.20;;;;;;;28.13;55.62;100597.94;5040075;28;20072;-74
2023/09/13 10:36:32;;;;;;;6.10;5.60;;;;;;;28.91;55.12;100650.00;5056218;28;20047;-71
2023/09/13 10:39:17;;;;;;;11.13;9.23;;;;;;;28.79;52.85;100633.72;5038056;28;20067;-72
2023/09/13 10:42:01;;;;;;;19.60;16.83;;;;;;;29.07;52.96;100644.34;5055053;28;20855;-70
2023/09/13 10:44:27;;;;;;;17.67;12.18;;;;;;;29.08;52.29;100556.91;5063973;28;20139;-69
2023/09/13 10:46:54;;;;;;;34.00;30.45;;;;;;;29.66;50.49;100645.31;5057099;28;20125;-70
2023/09/13 10:49:20;;;;;;;71.82;45.72;;;;;;;29.88;50.19;100616.63;5053078;28;20043;-69
2023/09/13 10:51:47;;;;;;;36.88;24.63;;;;;;;29.29;48.85;100538.22;5063422;28;20075;-71
2023/09/13 10:54:16;;;;;;;30.17;22.60;;;;;;;29.53;50.03;100585.00;5059842;28;20054;-71
2023/09/13 10:56:41;;;;;;;11.52;9.45;;;;;;;29.76;48.46;100612.13;5060273;28;20060;-71
2023/09/13 10:59:09;;;;;;;6.10;5.70;;;;;;;30.15;48.16;100594.63;5063111;28;20040;-71
2023/09/13 11:01:36;;;;;;;5.65;5.15;;;;;;;30.18;47.45;100621.47;5055177;28;20471;-72
2023/09/13 11:04:04;;;;;;;4.63;3.83;;;;;;;29.71;48.37;100539.47;5062253;28;20131;-71
2023/09/13 11:06:30;;;;;;;7.50;6.80;;;;;;;30.14;47.76;100611.88;5061088;28;20102;-72
2023/09/13 11:09:09;;;;;;;3.00;2.80;;;;;;;30.15;46.17;100542.34;5063942;28;20040;-72
2023/09/13 11:11:35;;;;;;;2.25;2.05;;;;;;;29.61;45.59;100542.00;5045282;28;20041;-72
2023/09/13 11:14:08;;;;;;;2.58;2.13;;;;;;;30.09;46.16;100608.66;5063056;28;20437;-73
2023/09/13 11:16:34;;;;;;;4.88;4.40;;;;;;;29.55;47.79;100552.41;5058988;28;20024;-70